createdAt,value
2022-10-26T00:00:29.258Z,86.20
2022-10-26T00:06:48.903Z,86.20
2022-10-26T00:09:54.091Z,86.40
2022-10-26T00:12:55.905Z,86.60
2022-10-26T00:19:21.962Z,86.90
2022-10-26T00:22:23.901Z,86.80
2022-10-26T00:25:25.748Z,86.60
2022-10-26T00:28:28.142Z,87.20
2022-10-26T00:31:33.001Z,87.10
2022-10-26T00:34:36.325Z,87.20
2022-10-26T00:37:38.220Z,87.20
2022-10-26T00:40:40.157Z,87.20
2022-10-26T00:43:42.649Z,86.90
2022-10-26T00:46:44.534Z,87.30
2022-10-26T00:49:49.505Z,87.30
2022-10-26T00:52:54.684Z,86.90
2022-10-26T00:55:57.095Z,87.30
2022-10-26T00:59:09.397Z,87.00
2022-10-26T01:02:12.071Z,87.40
2022-10-26T01:05:15.414Z,87.30
2022-10-26T01:08:18.222Z,87.20
2022-10-26T01:11:20.362Z,87.70
2022-10-26T01:14:23.661Z,87.60
2022-10-26T01:17:46.979Z,87.50
2022-10-26T01:21:07.328Z,87.10
2022-10-26T01:24:24.484Z,87.30
2022-10-26T01:27:49.201Z,87.70
2022-10-26T01:30:52.566Z,88.20
2022-10-26T01:34:21.793Z,88.10
2022-10-26T01:37:28.415Z,88.40
2022-10-26T01:40:36.993Z,88.00
2022-10-26T01:43:43.492Z,88.10
2022-10-26T01:46:48.995Z,87.60
2022-10-26T01:49:56.656Z,87.70
2022-10-26T01:52:58.907Z,88.20
2022-10-26T01:56:04.881Z,87.70
2022-10-26T01:59:25.057Z,87.80
2022-10-26T02:02:41.915Z,88.00
2022-10-26T02:06:00.801Z,87.90
2022-10-26T02:09:23.648Z,88.00
2022-10-26T02:12:45.344Z,87.80
2022-10-26T02:15:57.933Z,88.50
2022-10-26T02:19:19.669Z,88.20
2022-10-26T02:22:26.972Z,88.20
2022-10-26T02:25:32.890Z,87.50
2022-10-26T02:28:49.624Z,88.30
2022-10-26T02:31:52.924Z,88.40
2022-10-26T02:34:58.814Z,88.80
2022-10-26T02:38:03.945Z,88.40
2022-10-26T02:41:08.668Z,88.70
2022-10-26T02:44:23.652Z,88.60
2022-10-26T02:47:26.413Z,88.70
2022-10-26T02:50:36.325Z,88.70
2022-10-26T02:53:57.722Z,88.50
2022-10-26T02:57:12.777Z,88.70
2022-10-26T03:00:17.502Z,89.00
2022-10-26T03:03:20.108Z,88.70
2022-10-26T03:06:22.837Z,89.30
2022-10-26T03:09:25.744Z,88.80
2022-10-26T03:12:27.710Z,88.90
2022-10-26T03:15:29.540Z,88.60
2022-10-26T03:18:31.467Z,88.20
2022-10-26T03:21:33.554Z,88.70
2022-10-26T03:24:35.488Z,88.80
2022-10-26T03:27:37.290Z,88.70
2022-10-26T03:30:39.240Z,88.70
2022-10-26T03:33:41.279Z,88.30
2022-10-26T03:36:43.275Z,88.50
2022-10-26T03:39:45.091Z,88.80
2022-10-26T03:42:49.468Z,88.60
2022-10-26T03:45:51.703Z,89.10
2022-10-26T03:48:53.720Z,88.90
2022-10-26T03:51:55.716Z,88.90
2022-10-26T03:54:57.526Z,88.60
2022-10-26T03:58:00.178Z,88.60
2022-10-26T04:01:02.187Z,88.70
2022-10-26T04:04:04.131Z,88.60
2022-10-26T04:07:06.770Z,88.60
2022-10-26T04:10:09.358Z,88.20
2022-10-26T04:13:11.808Z,88.60
2022-10-26T04:16:13.850Z,88.40
2022-10-26T04:19:15.765Z,88.20
2022-10-26T04:22:17.615Z,88.50
2022-10-26T04:25:19.509Z,88.20
2022-10-26T04:28:21.446Z,88.30
2022-10-26T04:31:23.414Z,88.70
2022-10-26T04:34:26.192Z,89.10
2022-10-26T04:37:28.045Z,89.00
2022-10-26T04:40:31.262Z,89.20
2022-10-26T04:43:33.119Z,89.20
2022-10-26T04:46:34.982Z,89.30
2022-10-26T04:49:37.005Z,89.10
2022-10-26T04:52:39.231Z,89.40
2022-10-26T04:55:41.253Z,89.30
2022-10-26T04:58:43.128Z,89.70
2022-10-26T05:01:45.091Z,89.30
2022-10-26T05:04:47.698Z,89.40
2022-10-26T05:07:57.574Z,89.30
2022-10-26T05:10:59.410Z,88.90
2022-10-26T05:14:01.253Z,89.20
2022-10-26T05:17:03.156Z,89.00
2022-10-26T05:20:05.651Z,89.40
2022-10-26T05:23:10.162Z,89.40
2022-10-26T05:26:12.019Z,89.40
2022-10-26T05:29:13.970Z,89.50
2022-10-26T05:32:15.980Z,89.10
2022-10-26T05:35:17.892Z,88.80
2022-10-26T05:38:20.015Z,89.00
2022-10-26T05:41:22.648Z,89.40
2022-10-26T05:44:24.632Z,89.70
2022-10-26T05:47:26.506Z,89.30
2022-10-26T05:50:28.359Z,89.20
2022-10-26T05:53:30.212Z,89.40
2022-10-26T05:56:37.660Z,89.50
2022-10-26T05:59:40.089Z,89.30
2022-10-26T06:02:53.030Z,89.20
2022-10-26T06:05:57.771Z,89.20
2022-10-26T06:08:59.878Z,88.60
2022-10-26T06:12:02.058Z,89.10
2022-10-26T06:15:04.563Z,89.60
2022-10-26T06:18:25.063Z,89.40
2022-10-26T06:21:38.974Z,88.80
2022-10-26T06:24:47.332Z,88.70
2022-10-26T06:28:23.372Z,88.40
2022-10-26T06:31:40.174Z,88.40
2022-10-26T06:34:54.461Z,88.70
2022-10-26T06:37:59.961Z,88.30
2022-10-26T06:41:02.302Z,88.20
2022-10-26T06:44:06.547Z,87.70
2022-10-26T06:47:42.788Z,87.60
2022-10-26T06:50:52.453Z,87.30
2022-10-26T06:54:16.777Z,87.60
2022-10-26T06:57:24.067Z,87.60
2022-10-26T07:00:26.469Z,87.60
2022-10-26T07:03:28.753Z,87.60
2022-10-26T07:06:32.469Z,87.30
2022-10-26T07:09:36.408Z,87.10
2022-10-26T07:12:38.440Z,86.80
2022-10-26T07:15:40.804Z,86.90
2022-10-26T07:18:42.650Z,86.70
2022-10-26T07:21:44.552Z,86.60
2022-10-26T07:24:46.512Z,87.00
2022-10-26T07:27:48.945Z,86.60
2022-10-26T07:30:55.991Z,86.60
2022-10-26T07:33:58.303Z,86.60
2022-10-26T07:37:00.668Z,86.20
2022-10-26T07:40:05.742Z,85.80
2022-10-26T07:43:08.968Z,85.60
2022-10-26T07:46:11.334Z,85.50
2022-10-26T07:49:16.288Z,85.90
2022-10-26T07:52:21.194Z,86.10
2022-10-26T07:55:23.303Z,86.30
2022-10-26T07:58:25.156Z,86.10
2022-10-26T08:01:27.292Z,85.90
2022-10-26T08:04:29.418Z,86.30
2022-10-26T08:07:31.713Z,85.50
2022-10-26T08:10:33.648Z,85.30
2022-10-26T08:13:35.742Z,85.30
2022-10-26T08:16:38.373Z,85.20
2022-10-26T08:19:40.500Z,84.60
2022-10-26T08:22:42.516Z,84.80
2022-10-26T08:25:44.549Z,84.10
2022-10-26T08:28:51.160Z,82.80
2022-10-26T08:31:53.195Z,80.40
2022-10-26T08:34:55.133Z,78.60
2022-10-26T08:37:57.156Z,78.70
2022-10-26T08:40:59.036Z,77.80
2022-10-26T08:44:16.017Z,74.30
2022-10-26T08:47:30.474Z,72.30
2022-10-26T08:50:40.589Z,68.50
2022-10-26T08:54:01.893Z,63.20
2022-10-26T08:57:14.209Z,60.70
2022-10-26T09:00:21.462Z,62.70
2022-10-26T09:03:24.958Z,61.50
2022-10-26T09:06:53.579Z,64.40
2022-10-26T09:10:14.376Z,62.80
2022-10-26T09:13:37.005Z,62.00
2022-10-26T09:17:16.666Z,61.90
2022-10-26T09:20:49.450Z,63.70
2022-10-26T09:24:13.219Z,65.30
2022-10-26T09:27:20.594Z,67.20
2022-10-26T09:30:23.553Z,65.30
2022-10-26T09:33:26.603Z,63.80
2022-10-26T09:36:28.986Z,63.60
2022-10-26T09:39:40.076Z,62.00
2022-10-26T09:42:56.407Z,62.70
2022-10-26T09:45:58.447Z,61.70
2022-10-26T09:49:05.641Z,60.90
2022-10-26T09:52:08.456Z,60.40
2022-10-26T09:55:14.308Z,61.50
2022-10-26T09:58:29.833Z,60.60
2022-10-26T10:01:36.872Z,61.10
2022-10-26T10:04:47.322Z,60.60
2022-10-26T10:07:49.399Z,60.00
2022-10-26T10:11:00.346Z,63.00
2022-10-26T10:14:08.024Z,63.70
2022-10-26T10:17:21.681Z,65.00
2022-10-26T10:20:32.131Z,65.40
2022-10-26T10:23:48.437Z,64.60
2022-10-26T10:27:13.484Z,64.00
2022-10-26T10:30:27.697Z,61.90
2022-10-26T10:33:46.497Z,62.50
2022-10-26T10:36:49.753Z,61.00
2022-10-26T10:39:56.311Z,62.50
2022-10-26T10:43:13.954Z,61.10
2022-10-26T10:46:26.578Z,62.10
2022-10-26T10:49:29.351Z,62.30
2022-10-26T11:03:31.672Z,64.10
2022-10-26T11:06:37.950Z,65.20
2022-10-26T11:09:43.399Z,63.80
2022-10-26T11:12:56.792Z,64.60
2022-10-26T11:16:11.980Z,65.70
2022-10-26T11:19:22.357Z,65.60
2022-10-26T11:22:49.908Z,65.90
2022-10-26T11:25:59.812Z,65.40
2022-10-26T11:29:05.843Z,65.60
2022-10-26T11:32:19.146Z,64.60
2022-10-26T11:35:36.805Z,64.70
2022-10-26T11:39:02.755Z,65.30
2022-10-26T11:42:26.286Z,65.40
2022-10-26T11:45:35.907Z,65.10
2022-10-26T11:48:43.637Z,64.60
2022-10-26T11:51:52.331Z,64.60
2022-10-26T11:54:59.702Z,65.00
2022-10-26T11:58:02.329Z,64.20
2022-10-26T12:01:09.978Z,64.20
2022-10-26T12:04:12.772Z,64.20
2022-10-26T12:07:39.917Z,63.60
2022-10-26T12:10:47.981Z,63.80
2022-10-26T12:14:18.031Z,62.20
2022-10-26T12:17:37.138Z,63.10
2022-10-26T12:21:01.094Z,62.30
2022-10-26T12:24:22.932Z,61.90
2022-10-26T12:27:40.026Z,62.40
2022-10-26T12:30:41.904Z,62.90
2022-10-26T12:33:50.573Z,62.40
2022-10-26T12:36:55.300Z,62.80
2022-10-26T12:40:35.866Z,62.50
2022-10-26T12:43:39.649Z,63.60
2022-10-26T12:46:41.909Z,63.00
2022-10-26T12:49:59.543Z,62.20
2022-10-26T12:53:13.988Z,62.10
2022-10-26T12:56:19.375Z,62.50
2022-10-26T12:59:38.916Z,62.70
2022-10-26T13:02:58.874Z,62.60
2022-10-26T13:06:19.115Z,63.20
2022-10-26T13:09:27.692Z,61.80
2022-10-26T13:12:38.154Z,62.10
2022-10-26T13:15:52.246Z,62.00
2022-10-26T13:18:54.379Z,61.80
2022-10-26T13:22:01.424Z,63.30
2022-10-26T13:25:06.876Z,63.00
2022-10-26T13:28:40.152Z,62.40
2022-10-26T13:31:41.974Z,63.00
2022-10-26T13:34:44.834Z,62.80
2022-10-26T13:37:50.291Z,64.30
2022-10-26T13:40:59.919Z,63.00
2022-10-26T13:44:06.139Z,63.00
2022-10-26T13:47:36.676Z,63.30
2022-10-26T13:50:49.107Z,63.10
2022-10-26T13:53:57.186Z,62.30
2022-10-26T13:57:21.938Z,63.60
2022-10-26T14:00:24.411Z,63.90
2022-10-26T14:03:27.086Z,63.90
2022-10-26T14:06:38.704Z,65.20
2022-10-26T14:09:40.868Z,64.00
2022-10-26T14:12:43.112Z,63.70
2022-10-26T14:15:46.449Z,64.00
2022-10-26T14:18:49.048Z,64.20
2022-10-26T14:21:51.381Z,65.10
2022-10-26T14:25:01.159Z,65.30
2022-10-26T14:28:03.259Z,65.40
2022-10-26T14:31:15.197Z,64.90
2022-10-26T14:34:20.432Z,65.40
2022-10-26T14:37:36.703Z,65.70
2022-10-26T14:40:38.835Z,66.30
2022-10-26T14:43:40.751Z,65.60
2022-10-26T14:46:43.829Z,65.20
2022-10-26T14:49:46.560Z,65.50
2022-10-26T14:52:57.079Z,65.30
2022-10-26T14:55:58.999Z,65.70
2022-10-26T14:59:18.684Z,66.10
2022-10-26T15:02:21.968Z,67.10
2022-10-26T15:05:23.870Z,67.00
2022-10-26T15:08:52.342Z,66.40
2022-10-26T15:11:58.378Z,66.50
2022-10-26T15:15:16.985Z,67.10
2022-10-26T15:18:35.230Z,67.80
2022-10-26T15:21:46.205Z,67.50
2022-10-26T15:24:52.435Z,67.40
2022-10-26T15:27:54.608Z,67.80
2022-10-26T15:31:27.800Z,67.80
2022-10-26T15:34:29.707Z,68.30
2022-10-26T15:37:31.619Z,68.10
2022-10-26T15:40:33.506Z,68.20
2022-10-26T15:43:35.389Z,68.20
2022-10-26T15:46:37.418Z,68.40
2022-10-26T15:49:39.241Z,68.50
2022-10-26T15:52:42.323Z,68.30
2022-10-26T15:55:46.363Z,68.60
2022-10-26T15:58:48.234Z,69.00
2022-10-26T16:01:50.229Z,68.80
2022-10-26T16:04:52.231Z,68.90
2022-10-26T16:07:54.143Z,69.20
2022-10-26T16:10:56.313Z,69.50
2022-10-26T16:14:01.196Z,69.70
2022-10-26T16:17:06.935Z,71.00
2022-10-26T16:20:17.254Z,70.80
2022-10-26T16:23:19.073Z,71.60
2022-10-26T16:26:22.230Z,73.50
2022-10-26T16:29:24.064Z,75.40
2022-10-26T16:32:28.406Z,77.00
2022-10-26T16:35:30.242Z,78.00
2022-10-26T16:38:33.323Z,78.70
2022-10-26T16:41:35.227Z,78.50
2022-10-26T16:44:37.045Z,79.30
2022-10-26T16:47:39.343Z,79.30
2022-10-26T16:50:41.440Z,80.10
2022-10-26T16:53:43.729Z,80.40
2022-10-26T16:56:45.581Z,79.90
2022-10-26T16:59:47.489Z,80.30
2022-10-26T17:02:49.409Z,78.60
2022-10-26T17:06:17.675Z,79.10
2022-10-26T17:09:19.802Z,80.10
2022-10-26T17:12:21.631Z,80.70
2022-10-26T17:15:27.848Z,81.50
2022-10-26T17:18:30.911Z,81.90
2022-10-26T17:21:34.287Z,82.30
2022-10-26T17:24:36.152Z,82.70
2022-10-26T17:27:44.834Z,83.10
2022-10-26T17:30:49.331Z,83.20
2022-10-26T17:33:51.508Z,82.90
2022-10-26T17:36:53.373Z,82.90
2022-10-26T17:39:55.468Z,82.90
2022-10-26T17:42:58.267Z,83.40
2022-10-26T17:46:06.108Z,83.10
2022-10-26T17:49:08.001Z,82.90
2022-10-26T17:52:09.870Z,84.40
2022-10-26T17:55:11.740Z,85.20
2022-10-26T17:58:13.673Z,84.70
2022-10-26T18:01:15.612Z,84.60
2022-10-26T18:04:17.665Z,84.50
2022-10-26T18:07:19.521Z,84.90
2022-10-26T18:10:38.204Z,84.80
2022-10-26T18:13:40.482Z,84.50
2022-10-26T18:16:42.382Z,85.20
2022-10-26T18:19:44.213Z,85.00
2022-10-26T18:22:46.164Z,85.50
2022-10-26T18:25:48.021Z,85.10
2022-10-26T18:28:50.098Z,85.40
2022-10-26T18:31:51.970Z,85.10
2022-10-26T18:38:00.977Z,84.20
2022-10-26T18:41:03.317Z,84.30
2022-10-26T18:44:05.227Z,84.60
2022-10-26T18:47:07.152Z,84.80
2022-10-26T18:50:09.141Z,85.30
2022-10-26T18:53:11.138Z,85.40
2022-10-26T18:56:15.889Z,84.80
2022-10-26T19:02:31.269Z,85.90
2022-10-26T19:05:41.166Z,86.20
2022-10-26T19:08:45.225Z,86.60
2022-10-26T19:11:47.773Z,86.20
2022-10-26T19:14:55.863Z,86.20
2022-10-26T19:17:57.900Z,85.70
2022-10-26T19:24:17.191Z,86.00
2022-10-26T19:27:25.963Z,86.00
2022-10-26T19:30:27.994Z,86.10
2022-10-26T19:33:30.525Z,86.40
2022-10-26T19:36:34.926Z,86.80
2022-10-26T19:39:37.486Z,86.40
2022-10-26T19:42:39.700Z,86.30
2022-10-26T19:45:42.600Z,86.30
2022-10-26T19:48:53.667Z,86.10
2022-10-26T19:51:55.742Z,86.50
2022-10-26T19:55:00.142Z,86.60
2022-10-26T19:58:02.236Z,86.10
2022-10-26T20:04:13.448Z,86.00
2022-10-26T20:10:23.639Z,85.90
2022-10-26T20:16:42.849Z,86.40
2022-10-26T20:19:44.893Z,86.50
2022-10-26T20:22:48.163Z,86.90
2022-10-26T20:25:51.408Z,86.60
2022-10-26T20:28:53.421Z,86.50
2022-10-26T20:31:56.288Z,86.50
2022-10-26T20:35:05.310Z,87.00
2022-10-26T20:38:15.397Z,86.60
2022-10-26T20:41:18.122Z,86.60
2022-10-26T20:44:25.789Z,86.80
2022-10-26T20:47:34.214Z,87.00
2022-10-26T20:50:36.817Z,86.50
2022-10-26T20:53:44.383Z,86.80
2022-10-26T20:56:48.406Z,87.00
2022-10-26T20:59:54.478Z,86.60
2022-10-26T21:02:56.592Z,87.10
2022-10-26T21:05:58.515Z,87.30
2022-10-26T21:09:00.463Z,87.10
2022-10-26T21:12:02.419Z,86.90
2022-10-26T21:15:05.176Z,87.00
2022-10-26T21:18:07.181Z,87.20
2022-10-26T21:21:09.623Z,87.40
2022-10-26T21:24:11.635Z,86.90
2022-10-26T21:30:35.841Z,87.30
2022-10-26T21:33:38.153Z,86.80
2022-10-26T21:36:40.428Z,87.30
2022-10-26T21:39:42.409Z,87.80
2022-10-26T21:42:49.877Z,87.50
2022-10-26T21:45:58.707Z,87.00
2022-10-26T21:49:01.402Z,87.10
2022-10-26T21:52:03.493Z,87.40
2022-10-26T21:55:05.923Z,87.40
2022-10-26T22:01:33.176Z,88.30
2022-10-26T22:04:35.178Z,87.80
2022-10-26T22:07:37.047Z,87.30
2022-10-26T22:10:38.899Z,87.30
2022-10-26T22:13:41.348Z,87.30
2022-10-26T22:16:43.312Z,87.20
2022-10-26T22:19:51.978Z,87.20
2022-10-26T22:22:53.906Z,87.40
2022-10-26T22:26:01.949Z,87.70
2022-10-26T22:29:05.073Z,87.10
2022-10-26T22:32:06.975Z,86.90
2022-10-26T22:46:10.362Z,87.10
2022-10-26T22:49:47.956Z,87.40
2022-10-26T22:52:52.521Z,87.20
2022-10-26T22:55:54.808Z,88.00
2022-10-26T22:58:56.932Z,88.10
2022-10-26T23:01:58.825Z,87.50
2022-10-26T23:08:30.639Z,87.10
2022-10-26T23:11:32.982Z,87.50
2022-10-26T23:14:34.779Z,87.60
2022-10-26T23:17:36.696Z,87.30
2022-10-26T23:20:38.511Z,87.60
2022-10-26T23:23:40.938Z,87.60
2022-10-26T23:26:42.783Z,87.50
2022-10-26T23:33:06.450Z,87.90
2022-10-26T23:36:08.331Z,87.60
2022-10-26T23:39:10.208Z,87.70
2022-10-26T23:42:12.093Z,88.00
2022-10-26T23:45:13.976Z,88.00
2022-10-26T23:48:16.754Z,87.70
2022-10-26T23:51:18.638Z,87.50
2022-10-26T23:54:20.489Z,86.90
2022-10-26T23:57:22.327Z,87.40
